sensor_id;sensor_type;location;lat;lon;timestamp;pressure;altitude;pressure_sealevel;temperature;humidity
75991;BME280;64673;52.276;10.560;2023-07-24T00:00:38;99702.22;;;18.81;82.31
75991;BME280;64673;52.276;10.560;2023-07-24T00:03:05;99698.69;;;18.80;82.18
75991;BME280;64673;52.276;10.560;2023-07-24T00:05:30;99706.22;;;18.83;81.62
75991;BME280;64673;52.276;10.560;2023-07-24T00:07:56;99712.69;;;18.79;82.41
75991;BME280;64673;52.276;10.560;2023-07-24T00:10:21;99704.28;;;18.84;82.26
75991;BME280;64673;52.276;10.560;2023-07-24T00:12:46;99692.91;;;18.82;81.60
75991;BME280;64673;52.276;10.560;2023-07-24T00:15:12;99695.97;;;18.80;81.85
75991;BME280;64673;52.276;10.560;2023-07-24T00:17:37;99694.38;;;18.79;81.65
75991;BME280;64673;52.276;10.560;2023-07-24T00:20:02;99694.59;;;18.86;81.70
75991;BME280;64673;52.276;10.560;2023-07-24T00:22:28;99703.94;;;18.85;82.20
75991;BME280;64673;52.276;10.560;2023-07-24T00:24:53;99699.69;;;18.88;81.92
75991;BME280;64673;52.276;10.560;2023-07-24T00:27:18;99689.91;;;18.87;81.76
75991;BME280;64673;52.276;10.560;2023-07-24T00:29:44;99695.03;;;18.88;81.67
75991;BME280;64673;52.276;10.560;2023-07-24T00:32:09;99692.75;;;18.90;81.34
75991;BME280;64673;52.276;10.560;2023-07-24T00:34:35;99691.16;;;18.89;81.90
75991;BME280;64673;52.276;10.560;2023-07-24T00:37:00;99700.84;;;18.87;81.90
75991;BME280;64673;52.276;10.560;2023-07-24T00:39:25;99698.47;;;18.85;82.02
75991;BME280;64673;52.276;10.560;2023-07-24T00:41:53;99704.59;;;18.94;82.01
75991;BME280;64673;52.276;10.560;2023-07-24T00:44:19;99708.25;;;18.86;82.33
75991;BME280;64673;52.276;10.560;2023-07-24T00:46:44;99679.81;;;18.75;82.83
75991;BME280;64673;52.276;10.560;2023-07-24T00:49:09;99694.47;;;18.95;81.76
75991;BME280;64673;52.276;10.560;2023-07-24T00:51:35;99691.06;;;18.86;82.51
75991;BME280;64673;52.276;10.560;2023-07-24T00:54:02;99689.47;;;18.85;82.39
75991;BME280;64673;52.276;10.560;2023-07-24T00:56:30;99693.34;;;18.84;82.60
75991;BME280;64673;52.276;10.560;2023-07-24T00:58:56;99690.72;;;18.75;82.86
75991;BME280;64673;52.276;10.560;2023-07-24T01:01:23;99681.84;;;18.78;82.93
75991;BME280;64673;52.276;10.560;2023-07-24T01:03:49;99680.72;;;18.79;82.99
75991;BME280;64673;52.276;10.560;2023-07-24T01:06:14;99680.25;;;18.77;82.57
75991;BME280;64673;52.276;10.560;2023-07-24T01:08:39;99673.91;;;18.73;83.30
75991;BME280;64673;52.276;10.560;2023-07-24T01:11:50;99683.09;;;18.81;83.24
75991;BME280;64673;52.276;10.560;2023-07-24T01:14:46;99676.53;;;18.70;83.77
75991;BME280;64673;52.276;10.560;2023-07-24T01:17:21;99689.97;;;18.75;83.33
75991;BME280;64673;52.276;10.560;2023-07-24T01:19:58;99676.66;;;18.73;83.69
75991;BME280;64673;52.276;10.560;2023-07-24T01:27:23;99672.34;;;18.60;83.44
75991;BME280;64673;52.276;10.560;2023-07-24T01:29:49;99662.06;;;18.57;84.16
75991;BME280;64673;52.276;10.560;2023-07-24T01:32:14;99667.78;;;18.52;84.42
75991;BME280;64673;52.276;10.560;2023-07-24T01:34:40;99667.31;;;18.50;84.69
75991;BME280;64673;52.276;10.560;2023-07-24T01:37:05;99670.41;;;18.48;85.05
75991;BME280;64673;52.276;10.560;2023-07-24T01:39:31;99676.44;;;18.42;85.37
75991;BME280;64673;52.276;10.560;2023-07-24T01:41:57;99672.59;;;18.43;84.86
75991;BME280;64673;52.276;10.560;2023-07-24T01:44:23;99664.03;;;18.44;85.29
75991;BME280;64673;52.276;10.560;2023-07-24T01:46:49;99676.53;;;18.45;85.13
75991;BME280;64673;52.276;10.560;2023-07-24T01:49:14;99674.47;;;18.54;84.87
75991;BME280;64673;52.276;10.560;2023-07-24T01:51:39;99668.00;;;18.47;85.35
75991;BME280;64673;52.276;10.560;2023-07-24T01:54:04;99667.78;;;18.52;84.08
75991;BME280;64673;52.276;10.560;2023-07-24T01:56:30;99669.47;;;18.56;84.09
75991;BME280;64673;52.276;10.560;2023-07-24T01:58:55;99672.09;;;18.53;84.45
75991;BME280;64673;52.276;10.560;2023-07-24T02:01:20;99671.31;;;18.52;84.67
75991;BME280;64673;52.276;10.560;2023-07-24T02:03:46;99662.06;;;18.57;84.30
75991;BME280;64673;52.276;10.560;2023-07-24T02:06:11;99669.16;;;18.58;83.88
75991;BME280;64673;52.276;10.560;2023-07-24T02:08:36;99660.16;;;18.57;84.25
75991;BME280;64673;52.276;10.560;2023-07-24T02:11:02;99661.16;;;18.65;83.25
75991;BME280;64673;52.276;10.560;2023-07-24T02:13:27;99669.81;;;18.67;83.71
75991;BME280;64673;52.276;10.560;2023-07-24T02:15:52;99673.25;;;18.64;83.81
75991;BME280;64673;52.276;10.560;2023-07-24T02:18:18;99676.78;;;18.64;83.33
75991;BME280;64673;52.276;10.560;2023-07-24T02:20:50;99658.69;;;18.60;83.78
75991;BME280;64673;52.276;10.560;2023-07-24T02:23:16;99657.09;;;18.59;83.76
75991;BME280;64673;52.276;10.560;2023-07-24T02:25:41;99662.22;;;18.60;83.92
75991;BME280;64673;52.276;10.560;2023-07-24T02:28:08;99659.16;;;18.62;84.05
75991;BME280;64673;52.276;10.560;2023-07-24T02:30:37;99661.16;;;18.65;82.67
75991;BME280;64673;52.276;10.560;2023-07-24T02:33:03;99664.16;;;18.60;83.51
75991;BME280;64673;52.276;10.560;2023-07-24T02:35:28;99659.03;;;18.58;84.05
75991;BME280;64673;52.276;10.560;2023-07-24T02:37:53;99668.69;;;18.68;83.25
75991;BME280;64673;52.276;10.560;2023-07-24T02:40:19;99661.63;;;18.67;83.14
75991;BME280;64673;52.276;10.560;2023-07-24T02:42:44;99659.34;;;18.69;83.09
75991;BME280;64673;52.276;10.560;2023-07-24T02:45:09;99658.44;;;18.65;83.14
75991;BME280;64673;52.276;10.560;2023-07-24T02:47:36;99652.41;;;18.72;83.08
75991;BME280;64673;52.276;10.560;2023-07-24T02:50:01;99656.16;;;18.67;83.37
75991;BME280;64673;52.276;10.560;2023-07-24T02:52:27;99646.75;;;18.64;82.35
75991;BME280;64673;52.276;10.560;2023-07-24T02:54:53;99654.69;;;18.70;82.65
75991;BME280;64673;52.276;10.560;2023-07-24T02:57:20;99660.94;;;18.70;83.11
75991;BME280;64673;52.276;10.560;2023-07-24T02:59:45;99661.41;;;18.72;81.87
75991;BME280;64673;52.276;10.560;2023-07-24T03:02:11;99655.94;;;18.72;82.46
75991;BME280;64673;52.276;10.560;2023-07-24T03:04:36;99663.41;;;18.75;82.34
75991;BME280;64673;52.276;10.560;2023-07-24T03:07:02;99668.75;;;18.84;81.96
75991;BME280;64673;52.276;10.560;2023-07-24T03:09:27;99662.53;;;18.71;82.25
75991;BME280;64673;52.276;10.560;2023-07-24T03:11:53;99665.91;;;18.80;82.03
75991;BME280;64673;52.276;10.560;2023-07-24T03:14:18;99665.25;;;18.71;82.50
75991;BME280;64673;52.276;10.560;2023-07-24T03:16:43;99652.59;;;18.79;82.12
75991;BME280;64673;52.276;10.560;2023-07-24T03:19:08;99662.53;;;18.71;82.36
75991;BME280;64673;52.276;10.560;2023-07-24T03:21:35;99664.44;;;18.83;81.71
75991;BME280;64673;52.276;10.560;2023-07-24T03:24:00;99660.25;;;18.73;82.11
75991;BME280;64673;52.276;10.560;2023-07-24T03:26:26;99659.13;;;18.74;82.01
75991;BME280;64673;52.276;10.560;2023-07-24T03:28:51;99668.19;;;18.78;81.70
75991;BME280;64673;52.276;10.560;2023-07-24T03:31:16;99653.75;;;18.78;81.49
75991;BME280;64673;52.276;10.560;2023-07-24T03:33:42;99657.28;;;18.78;81.97
75991;BME280;64673;52.276;10.560;2023-07-24T03:36:07;99650.13;;;18.74;81.59
75991;BME280;64673;52.276;10.560;2023-07-24T03:38:32;99653.88;;;18.69;81.54
75991;BME280;64673;52.276;10.560;2023-07-24T03:40:59;99652.75;;;18.70;82.44
75991;BME280;64673;52.276;10.560;2023-07-24T03:43:24;99652.97;;;18.65;81.33
75991;BME280;64673;52.276;10.560;2023-07-24T03:45:49;99647.50;;;18.65;81.48
75991;BME280;64673;52.276;10.560;2023-07-24T03:48:16;99640.22;;;18.57;82.29
75991;BME280;64673;52.276;10.560;2023-07-24T03:50:42;99644.81;;;18.53;83.05
75991;BME280;64673;52.276;10.560;2023-07-24T03:53:07;99641.69;;;18.54;82.21
75991;BME280;64673;52.276;10.560;2023-07-24T03:55:32;99633.50;;;18.54;82.79
75991;BME280;64673;52.276;10.560;2023-07-24T03:57:58;99644.34;;;18.63;81.85
75991;BME280;64673;52.276;10.560;2023-07-24T04:00:23;99634.91;;;18.60;82.07
75991;BME280;64673;52.276;10.560;2023-07-24T04:02:48;99646.28;;;18.62;82.81
75991;BME280;64673;52.276;10.560;2023-07-24T04:05:14;99633.63;;;18.70;81.91
75991;BME280;64673;52.276;10.560;2023-07-24T04:07:39;99639.78;;;18.67;82.56
75991;BME280;64673;52.276;10.560;2023-07-24T04:10:05;99621.59;;;18.59;81.60
75991;BME280;64673;52.276;10.560;2023-07-24T04:12:31;99631.03;;;18.61;82.57
75991;BME280;64673;52.276;10.560;2023-07-24T04:14:56;99636.59;;;18.53;83.21
75991;BME280;64673;52.276;10.560;2023-07-24T04:17:22;99633.78;;;18.61;81.70
75991;BME280;64673;52.276;10.560;2023-07-24T04:19:47;99624.56;;;18.54;82.84
75991;BME280;64673;52.276;10.560;2023-07-24T04:22:12;99628.31;;;18.61;82.88
75991;BME280;64673;52.276;10.560;2023-07-24T04:24:38;99622.50;;;18.63;82.53
75991;BME280;64673;52.276;10.560;2023-07-24T04:27:03;99618.25;;;18.65;81.74
75991;BME280;64673;52.276;10.560;2023-07-24T04:29:28;99615.91;;;18.64;82.31
75991;BME280;64673;52.276;10.560;2023-07-24T04:31:54;99620.19;;;18.65;81.79
75991;BME280;64673;52.276;10.560;2023-07-24T04:34:19;99619.78;;;18.63;82.08
75991;BME280;64673;52.276;10.560;2023-07-24T04:36:44;99618.38;;;18.57;82.54
75991;BME280;64673;52.276;10.560;2023-07-24T04:39:10;99616.59;;;18.49;82.49
75991;BME280;64673;52.276;10.560;2023-07-24T04:41:35;99598.59;;;18.48;82.59
75991;BME280;64673;52.276;10.560;2023-07-24T04:44:00;99590.22;;;18.41;82.73
75991;BME280;64673;52.276;10.560;2023-07-24T04:46:26;99585.91;;;18.40;82.63
75991;BME280;64673;52.276;10.560;2023-07-24T04:48:51;99597.81;;;18.47;82.42
75991;BME280;64673;52.276;10.560;2023-07-24T04:51:17;99595.09;;;18.35;82.98
75991;BME280;64673;52.276;10.560;2023-07-24T04:53:44;99597.69;;;18.44;82.84
75991;BME280;64673;52.276;10.560;2023-07-24T04:56:09;99592.69;;;18.46;82.64
75991;BME280;64673;52.276;10.560;2023-07-24T04:58:35;99594.50;;;18.54;83.24
75991;BME280;64673;52.276;10.560;2023-07-24T05:01:04;99579.59;;;18.51;82.32
75991;BME280;64673;52.276;10.560;2023-07-24T05:03:30;99601.34;;;18.60;82.64
75991;BME280;64673;52.276;10.560;2023-07-24T05:05:56;99597.44;;;18.73;81.63
75991;BME280;64673;52.276;10.560;2023-07-24T05:08:22;99594.91;;;18.80;81.23
75991;BME280;64673;52.276;10.560;2023-07-24T05:10:47;99580.53;;;18.83;81.10
75991;BME280;64673;52.276;10.560;2023-07-24T05:13:12;99568.25;;;18.77;80.53
75991;BME280;64673;52.276;10.560;2023-07-24T05:15:38;99559.19;;;18.73;81.58
75991;BME280;64673;52.276;10.560;2023-07-24T05:18:03;99552.13;;;18.72;82.22
75991;BME280;64673;52.276;10.560;2023-07-24T05:20:28;99545.72;;;18.80;81.12
75991;BME280;64673;52.276;10.560;2023-07-24T05:22:54;99541.50;;;18.83;81.53
75991;BME280;64673;52.276;10.560;2023-07-24T05:25:19;99545.47;;;18.85;81.85
75991;BME280;64673;52.276;10.560;2023-07-24T05:27:44;99538.94;;;18.90;81.08
75991;BME280;64673;52.276;10.560;2023-07-24T05:30:10;99533.88;;;19.04;80.93
75991;BME280;64673;52.276;10.560;2023-07-24T05:32:35;99519.88;;;19.06;79.98
75991;BME280;64673;52.276;10.560;2023-07-24T05:35:00;99535.03;;;19.19;80.07
75991;BME280;64673;52.276;10.560;2023-07-24T05:37:26;99536.38;;;19.25;79.35
75991;BME280;64673;52.276;10.560;2023-07-24T05:39:51;99538.22;;;19.36;79.20
75991;BME280;64673;52.276;10.560;2023-07-24T05:42:16;99535.84;;;19.35;79.40
75991;BME280;64673;52.276;10.560;2023-07-24T05:44:42;99531.16;;;19.35;78.58
75991;BME280;64673;52.276;10.560;2023-07-24T05:47:07;99533.19;;;19.38;78.36
75991;BME280;64673;52.276;10.560;2023-07-24T05:49:32;99531.97;;;19.52;78.61
75991;BME280;64673;52.276;10.560;2023-07-24T05:51:58;99530.47;;;19.54;77.89
75991;BME280;64673;52.276;10.560;2023-07-24T05:54:23;99530.38;;;19.66;77.29
75991;BME280;64673;52.276;10.560;2023-07-24T05:56:48;99532.56;;;19.77;76.93
75991;BME280;64673;52.276;10.560;2023-07-24T05:59:14;99529.72;;;19.89;77.08
75991;BME280;64673;52.276;10.560;2023-07-24T06:01:39;99537.28;;;19.95;76.71
75991;BME280;64673;52.276;10.560;2023-07-24T06:04:04;99535.50;;;20.03;76.25
75991;BME280;64673;52.276;10.560;2023-07-24T06:06:32;99534.56;;;19.95;76.84
75991;BME280;64673;52.276;10.560;2023-07-24T06:08:57;99536.78;;;19.90;76.57
75991;BME280;64673;52.276;10.560;2023-07-24T06:11:23;99539.44;;;19.86;77.16
75991;BME280;64673;52.276;10.560;2023-07-24T06:13:48;99539.09;;;19.88;77.87
75991;BME280;64673;52.276;10.560;2023-07-24T06:16:13;99520.53;;;19.81;77.84
75991;BME280;64673;52.276;10.560;2023-07-24T06:18:39;99531.56;;;19.85;78.37
75991;BME280;64673;52.276;10.560;2023-07-24T06:21:04;99526.22;;;19.72;78.40
75991;BME280;64673;52.276;10.560;2023-07-24T06:23:29;99518.00;;;19.72;79.64
75991;BME280;64673;52.276;10.560;2023-07-24T06:25:55;99516.59;;;19.63;80.15
75991;BME280;64673;52.276;10.560;2023-07-24T06:28:20;99530.88;;;19.72;79.96
75991;BME280;64673;52.276;10.560;2023-07-24T06:30:46;99529.22;;;19.67;79.59
75991;BME280;64673;52.276;10.560;2023-07-24T06:33:11;99521.47;;;19.69;80.54
75991;BME280;64673;52.276;10.560;2023-07-24T06:35:37;99518.19;;;19.64;80.58
75991;BME280;64673;52.276;10.560;2023-07-24T06:38:02;99518.09;;;19.60;80.25
75991;BME280;64673;52.276;10.560;2023-07-24T06:40:28;99515.81;;;19.62;79.99
75991;BME280;64673;52.276;10.560;2023-07-24T06:42:53;99507.41;;;19.87;79.22
75991;BME280;64673;52.276;10.560;2023-07-24T06:45:19;99509.53;;;20.13;78.84
75991;BME280;64673;52.276;10.560;2023-07-24T06:47:44;99507.88;;;20.27;79.50
75991;BME280;64673;52.276;10.560;2023-07-24T06:50:09;99491.56;;;20.50;79.60
75991;BME280;64673;52.276;10.560;2023-07-24T06:52:35;99488.56;;;20.59;78.25
75991;BME280;64673;52.276;10.560;2023-07-24T06:55:00;99482.31;;;20.58;77.74
75991;BME280;64673;52.276;10.560;2023-07-24T06:57:26;99490.59;;;20.62;76.28
75991;BME280;64673;52.276;10.560;2023-07-24T06:59:51;99476.91;;;20.62;74.73
75991;BME280;64673;52.276;10.560;2023-07-24T07:02:16;99476.31;;;20.72;75.88
75991;BME280;64673;52.276;10.560;2023-07-24T07:04:42;99476.16;;;20.84;75.22
75991;BME280;64673;52.276;10.560;2023-07-24T07:07:07;99481.56;;;21.03;77.55
75991;BME280;64673;52.276;10.560;2023-07-24T07:09:32;99474.91;;;20.81;75.43
75991;BME280;64673;52.276;10.560;2023-07-24T07:11:58;99475.78;;;20.86;75.92
75991;BME280;64673;52.276;10.560;2023-07-24T07:14:23;99490.88;;;20.76;74.04
75991;BME280;64673;52.276;10.560;2023-07-24T07:16:48;99480.50;;;20.66;74.08
75991;BME280;64673;52.276;10.560;2023-07-24T07:19:14;99478.97;;;20.68;73.77
75991;BME280;64673;52.276;10.560;2023-07-24T07:21:39;99469.47;;;20.62;73.67
75991;BME280;64673;52.276;10.560;2023-07-24T07:24:05;99472.69;;;20.68;72.78
75991;BME280;64673;52.276;10.560;2023-07-24T07:26:30;99477.47;;;20.71;73.78
75991;BME280;64673;52.276;10.560;2023-07-24T07:28:55;99472.84;;;20.75;73.33
75991;BME280;64673;52.276;10.560;2023-07-24T07:31:21;99468.97;;;20.76;73.86
75991;BME280;64673;52.276;10.560;2023-07-24T07:33:46;99463.09;;;20.77;73.48
75991;BME280;64673;52.276;10.560;2023-07-24T07:36:12;99451.91;;;20.86;74.26
75991;BME280;64673;52.276;10.560;2023-07-24T07:38:37;99446.78;;;21.07;72.52
75991;BME280;64673;52.276;10.560;2023-07-24T07:41:05;99456.28;;;21.13;71.38
75991;BME280;64673;52.276;10.560;2023-07-24T07:43:31;99451.59;;;21.37;70.08
75991;BME280;64673;52.276;10.560;2023-07-24T07:45:56;99445.06;;;21.45;70.36
75991;BME280;64673;52.276;10.560;2023-07-24T07:48:23;99443.72;;;21.62;69.80
75991;BME280;64673;52.276;10.560;2023-07-24T07:50:52;99433.22;;;21.67;68.24
75991;BME280;64673;52.276;10.560;2023-07-24T07:53:17;99439.78;;;21.59;70.85
75991;BME280;64673;52.276;10.560;2023-07-24T07:55:42;99430.34;;;21.57;68.91
75991;BME280;64673;52.276;10.560;2023-07-24T07:58:08;99425.00;;;21.67;67.22
75991;BME280;64673;52.276;10.560;2023-07-24T08:00:34;99432.91;;;21.72;68.44
75991;BME280;64673;52.276;10.560;2023-07-24T08:02:59;99429.63;;;21.63;68.14
75991;BME280;64673;52.276;10.560;2023-07-24T08:05:25;99435.91;;;21.64;67.50
75991;BME280;64673;52.276;10.560;2023-07-24T08:07:50;99429.25;;;21.61;67.81
75991;BME280;64673;52.276;10.560;2023-07-24T08:10:15;99423.50;;;21.73;67.47
75991;BME280;64673;52.276;10.560;2023-07-24T08:12:42;99425.66;;;21.57;67.99
75991;BME280;64673;52.276;10.560;2023-07-24T08:15:07;99421.19;;;21.75;67.27
75991;BME280;64673;52.276;10.560;2023-07-24T08:17:33;99423.63;;;21.80;67.54
75991;BME280;64673;52.276;10.560;2023-07-24T08:19:58;99426.38;;;22.10;68.51
75991;BME280;64673;52.276;10.560;2023-07-24T08:22:24;99415.50;;;22.21;65.40
75991;BME280;64673;52.276;10.560;2023-07-24T08:24:49;99418.44;;;22.35;64.86
75991;BME280;64673;52.276;10.560;2023-07-24T08:27:16;99417.41;;;22.50;62.93
75991;BME280;64673;52.276;10.560;2023-07-24T08:29:41;99425.22;;;22.48;62.14
75991;BME280;64673;52.276;10.560;2023-07-24T08:32:07;99424.63;;;22.66;63.71
75991;BME280;64673;52.276;10.560;2023-07-24T08:34:32;99405.03;;;22.67;63.04
75991;BME280;64673;52.276;10.560;2023-07-24T08:36:58;99407.97;;;22.88;63.46
75991;BME280;64673;52.276;10.560;2023-07-24T08:39:23;99413.41;;;22.78;61.62
75991;BME280;64673;52.276;10.560;2023-07-24T08:41:48;99397.94;;;22.70;61.01
75991;BME280;64673;52.276;10.560;2023-07-24T08:44:14;99405.16;;;22.78;61.45
75991;BME280;64673;52.276;10.560;2023-07-24T08:46:40;99390.22;;;22.79;62.10
75991;BME280;64673;52.276;10.560;2023-07-24T08:49:11;99406.69;;;22.75;59.98
75991;BME280;64673;52.276;10.560;2023-07-24T08:51:37;99402.53;;;22.55;60.68
75991;BME280;64673;52.276;10.560;2023-07-24T08:54:03;99388.53;;;22.30;61.88
75991;BME280;64673;52.276;10.560;2023-07-24T08:56:29;99393.53;;;22.21;61.79
75991;BME280;64673;52.276;10.560;2023-07-24T08:58:55;99410.75;;;22.18;60.83
75991;BME280;64673;52.276;10.560;2023-07-24T09:01:20;99406.72;;;22.08;62.06
75991;BME280;64673;52.276;10.560;2023-07-24T09:03:46;99436.06;;;22.01;62.50
75991;BME280;64673;52.276;10.560;2023-07-24T09:06:11;99454.09;;;21.00;71.11
75991;BME280;64673;52.276;10.560;2023-07-24T09:08:38;99450.28;;;20.24;77.69
75991;BME280;64673;52.276;10.560;2023-07-24T09:11:05;99460.63;;;20.11;79.97
75991;BME280;64673;52.276;10.560;2023-07-24T09:13:31;99455.00;;;20.23;80.38
75991;BME280;64673;52.276;10.560;2023-07-24T09:15:57;99441.53;;;20.34;79.61
75991;BME280;64673;52.276;10.560;2023-07-24T09:18:22;99441.66;;;20.83;79.94
75991;BME280;64673;52.276;10.560;2023-07-24T09:20:48;99460.41;;;20.81;77.35
75991;BME280;64673;52.276;10.560;2023-07-24T09:23:14;99456.00;;;20.96;76.25
75991;BME280;64673;52.276;10.560;2023-07-24T09:25:42;99444.94;;;21.15;75.45
75991;BME280;64673;52.276;10.560;2023-07-24T09:28:15;99437.22;;;21.21;74.26
75991;BME280;64673;52.276;10.560;2023-07-24T09:30:50;99453.78;;;21.05;73.39
75991;BME280;64673;52.276;10.560;2023-07-24T09:33:16;99449.56;;;21.11;72.96
75991;BME280;64673;52.276;10.560;2023-07-24T09:35:42;99453.53;;;21.13;71.88
75991;BME280;64673;52.276;10.560;2023-07-24T09:38:08;99450.47;;;21.41;70.84
75991;BME280;64673;52.276;10.560;2023-07-24T09:40:41;99454.53;;;21.51;71.78
75991;BME280;64673;52.276;10.560;2023-07-24T09:43:28;99456.44;;;21.73;71.46
75991;BME280;64673;52.276;10.560;2023-07-24T09:45:54;99453.72;;;21.47;69.97
75991;BME280;64673;52.276;10.560;2023-07-24T09:48:21;99451.16;;;21.35;69.79
75991;BME280;64673;52.276;10.560;2023-07-24T09:50:49;99448.84;;;21.37;70.30
75991;BME280;64673;52.276;10.560;2023-07-24T09:55:51;99462.91;;;21.12;69.74
75991;BME280;64673;52.276;10.560;2023-07-24T09:58:18;99462.13;;;21.12;71.40
75991;BME280;64673;52.276;10.560;2023-07-24T10:00:44;99445.25;;;21.10;70.78
75991;BME280;64673;52.276;10.560;2023-07-24T10:03:10;99448.50;;;21.15;71.21
75991;BME280;64673;52.276;10.560;2023-07-24T10:05:35;99451.97;;;21.12;69.91
75991;BME280;64673;52.276;10.560;2023-07-24T10:08:01;99443.72;;;21.12;70.26
75991;BME280;64673;52.276;10.560;2023-07-24T10:10:27;99445.38;;;21.40;69.87
75991;BME280;64673;52.276;10.560;2023-07-24T10:12:54;99452.16;;;21.76;68.64
75991;BME280;64673;52.276;10.560;2023-07-24T10:15:20;99442.53;;;21.89;67.90
75991;BME280;64673;52.276;10.560;2023-07-24T10:17:46;99455.41;;;22.11;68.06
75991;BME280;64673;52.276;10.560;2023-07-24T10:20:12;99446.03;;;21.86;68.10
75991;BME280;64673;52.276;10.560;2023-07-24T10:22:41;99451.94;;;21.88;67.15
75991;BME280;64673;52.276;10.560;2023-07-24T10:25:08;99448.72;;;21.82;66.73
75991;BME280;64673;52.276;10.560;2023-07-24T10:27:42;99436.72;;;21.64;65.89
75991;BME280;64673;52.276;10.560;2023-07-24T10:30:09;99438.81;;;21.74;66.21
75991;BME280;64673;52.276;10.560;2023-07-24T10:32:45;99430.84;;;21.96;65.84
75991;BME280;64673;52.276;10.560;2023-07-24T10:35:10;99427.19;;;22.14;65.02
75991;BME280;64673;52.276;10.560;2023-07-24T10:37:37;99424.69;;;22.36;65.47
75991;BME280;64673;52.276;10.560;2023-07-24T10:40:03;99422.56;;;22.55;66.22
75991;BME280;64673;52.276;10.560;2023-07-24T10:42:29;99424.28;;;22.34;64.09
75991;BME280;64673;52.276;10.560;2023-07-24T10:45:08;99415.19;;;22.63;64.47
75991;BME280;64673;52.276;10.560;2023-07-24T10:47:34;99401.97;;;22.76;64.78
75991;BME280;64673;52.276;10.560;2023-07-24T10:49:59;99408.19;;;22.32;63.35
75991;BME280;64673;52.276;10.560;2023-07-24T10:52:29;99391.03;;;22.42;64.34
75991;BME280;64673;52.276;10.560;2023-07-24T10:54:54;99393.13;;;22.56;62.60
75991;BME280;64673;52.276;10.560;2023-07-24T10:57:28;99382.13;;;22.56;61.69
75991;BME280;64673;52.276;10.560;2023-07-24T10:59:53;99383.16;;;22.81;60.84
75991;BME280;64673;52.276;10.560;2023-07-24T11:02:19;99384.63;;;22.72;60.34
75991;BME280;64673;52.276;10.560;2023-07-24T11:04:45;99377.41;;;22.97;62.14
75991;BME280;64673;52.276;10.560;2023-07-24T11:07:11;99379.00;;;22.98;62.83
75991;BME280;64673;52.276;10.560;2023-07-24T11:09:38;99384.66;;;23.19;62.14
75991;BME280;64673;52.276;10.560;2023-07-24T11:12:15;99388.75;;;22.92;60.35
75991;BME280;64673;52.276;10.560;2023-07-24T11:17:17;99380.50;;;23.47;58.96
75991;BME280;64673;52.276;10.560;2023-07-24T11:19:42;99364.16;;;23.71;59.08
75991;BME280;64673;52.276;10.560;2023-07-24T11:22:08;99369.72;;;23.89;58.63
75991;BME280;64673;52.276;10.560;2023-07-24T11:24:42;99369.03;;;24.17;58.15
75991;BME280;64673;52.276;10.560;2023-07-24T11:27:13;99371.50;;;24.47;56.76
75991;BME280;64673;52.276;10.560;2023-07-24T11:29:39;99376.19;;;24.36;57.39
75991;BME280;64673;52.276;10.560;2023-07-24T11:32:04;99367.44;;;24.09;57.47
75991;BME280;64673;52.276;10.560;2023-07-24T11:34:30;99369.41;;;24.19;57.59
75991;BME280;64673;52.276;10.560;2023-07-24T11:36:56;99360.69;;;23.96;56.41
75991;BME280;64673;52.276;10.560;2023-07-24T11:39:22;99369.78;;;24.03;58.25
75991;BME280;64673;52.276;10.560;2023-07-24T11:41:48;99363.13;;;24.19;57.12
75991;BME280;64673;52.276;10.560;2023-07-24T11:44:13;99356.84;;;24.15;56.33
75991;BME280;64673;52.276;10.560;2023-07-24T11:46:41;99365.19;;;24.50;55.49
75991;BME280;64673;52.276;10.560;2023-07-24T11:49:07;99362.84;;;24.63;54.20
75991;BME280;64673;52.276;10.560;2023-07-24T11:51:32;99355.75;;;24.69;55.85
75991;BME280;64673;52.276;10.560;2023-07-24T11:54:11;99354.91;;;24.22;55.83
75991;BME280;64673;52.276;10.560;2023-07-24T11:56:37;99359.66;;;24.50;56.31
75991;BME280;64673;52.276;10.560;2023-07-24T11:59:09;99337.59;;;24.39;54.02
75991;BME280;64673;52.276;10.560;2023-07-24T12:01:35;99343.09;;;24.22;54.24
75991;BME280;64673;52.276;10.560;2023-07-24T12:04:00;99337.66;;;24.68;53.15
75991;BME280;64673;52.276;10.560;2023-07-24T12:06:26;99357.34;;;24.84;53.98
75991;BME280;64673;52.276;10.560;2023-07-24T12:08:51;99337.25;;;24.87;53.02
75991;BME280;64673;52.276;10.560;2023-07-24T12:11:17;99326.59;;;24.86;54.45
75991;BME280;64673;52.276;10.560;2023-07-24T12:13:46;99316.34;;;25.00;52.60
75991;BME280;64673;52.276;10.560;2023-07-24T12:16:11;99317.88;;;25.40;51.62
75991;BME280;64673;52.276;10.560;2023-07-24T12:18:36;99313.13;;;25.37;51.29
75991;BME280;64673;52.276;10.560;2023-07-24T12:21:02;99301.31;;;25.37;53.38
75991;BME280;64673;52.276;10.560;2023-07-24T12:23:27;99312.31;;;25.47;50.22
75991;BME280;64673;52.276;10.560;2023-07-24T12:25:52;99291.13;;;25.02;51.68
75991;BME280;64673;52.276;10.560;2023-07-24T12:28:18;99283.63;;;25.20;50.53
75991;BME280;64673;52.276;10.560;2023-07-24T12:30:43;99302.06;;;25.44;49.07
75991;BME280;64673;52.276;10.560;2023-07-24T12:33:08;99295.31;;;25.56;51.30
75991;BME280;64673;52.276;10.560;2023-07-24T12:35:34;99294.47;;;25.77;50.11
75991;BME280;64673;52.276;10.560;2023-07-24T12:37:59;99307.53;;;25.55;48.68
75991;BME280;64673;52.276;10.560;2023-07-24T12:40:24;99287.06;;;25.52;48.83
75991;BME280;64673;52.276;10.560;2023-07-24T12:42:50;99290.22;;;25.62;51.06
75991;BME280;64673;52.276;10.560;2023-07-24T12:45:15;99288.38;;;25.09;53.67
75991;BME280;64673;52.276;10.560;2023-07-24T12:47:40;99273.84;;;24.66;52.58
75991;BME280;64673;52.276;10.560;2023-07-24T12:50:06;99271.84;;;24.59;53.26
75991;BME280;64673;52.276;10.560;2023-07-24T12:52:31;99277.75;;;24.75;51.34
75991;BME280;64673;52.276;10.560;2023-07-24T12:54:56;99261.22;;;24.90;51.20